Terminal Aerodrome Forecast
Issued by NWS Charleston, WV

Current Version | Previous Version | Text Only | Print | Product List | Glossary Off
Versions: 1 2 3 4 5 6 7 8 9 10 11 12 13 14 15 16 17 18 19 20 21 22 23 24

000
FTUS41 KRLX 210241 AAA
TAFHTS
TAF AMD
KHTS 210241Z 2103/2124 VRB03KT P6SM VCTS SCT070CB
     FM210800 16005KT 3SM BR BKN050
      TEMPO 2108/2111 1/4SM FG OVC001
     FM211100 16004KT 6SM SHRA BR BKN040
     FM211500 18007KT 3SM SHRA BR OVC025
     FM211800 19007KT 3SM SHRA VCTS OVC025CB=

USA.gov is the U.S. government's official web portal to all federal, state and local government web resources and services.